Aviation Digital Data Service (ADDS)

Output produced by METARs form (1752 UTC 09 February 2016)
found at http://aviationweather.gov/adds/metars/
 
KPWM 091728Z 0918/1018 34007KT P6SM BKN035 OVC120 
     TEMPO 0918/0920 BKN015 
     FM092100 36004KT P6SM OVC035